Flight Track Log - Related Links

Times and Time Zones

All times are in EDT time to prevent confusion due to time zone crossing. See the RPA3392 flight status page for this flight to view local times or setup timezone preferences in your user account.

Time Position Orientation Groundspeed Altitude Reporting Facility
EDT Latitude Longitude Course Direction KTS MPH feet Rate Location/Type
Mon 06:03:13 PM 44.8500 -93.2167 117° Southeast 170 196 2,300  Level Minneapolis TRACON
Mon 06:04:00 PM 44.8239 -93.1711 129° Southeast 202 232 3,300 1,596 Climbing Minneapolis Center
Mon 06:05:00 PM 44.7565 -92.7646 111° Southeast  Level Estimated
Mon 06:05:02 PM 44.7864 -93.0847 121° Southeast 261 300 5,200  Level Minneapolis Center
Mon 06:06:00 PM 44.7143 -92.6127 113° Southeast  Level Estimated
Mon 06:06:03 PM 44.7592 -92.9794 110° East 285 328 7,500  Level Minneapolis Center
Mon 06:07:00 PM 44.6719 -92.4610 125° Southeast  Level Estimated
Mon 06:07:05 PM 44.7306 -92.8686 110° East 299 344 9,800  Level Minneapolis Center
Mon 06:08:00 PM 44.6293 -92.3095 117° Southeast  Level Estimated
Mon 06:08:06 PM 44.6925 -92.7592 116° Southeast 317 365 11,400  Level Minneapolis Center
Mon 06:09:08 PM 44.6447 -92.6483 121° Southeast 331 381 13,300 1,902 Climbing Minneapolis Center
Mon 06:10:09 PM 44.5956 -92.5364 122° Southeast 338 389 15,300 1,805 Climbing Minneapolis Center
Mon 06:11:11 PM 44.5464 -92.4225 121° Southeast 341 392 17,000 1,839 Climbing Minneapolis Center
Mon 06:12:13 PM 44.4850 -92.2831 122° Southeast 350 403 19,100 1,707 Climbing Minneapolis Center
Mon 06:13:14 PM 44.4325 -92.1622 121° Southeast 361 415 20,500 1,317 Climbing Minneapolis Center
Mon 06:14:16 PM 44.3783 -92.0392 122° Southeast 371 427 21,800 1,268 Climbing Minneapolis Center
Mon 06:15:17 PM 44.3225 -91.9142 122° Southeast 378 435 23,100 1,122 Climbing Minneapolis Center
Mon 06:16:19 PM 44.2658 -91.7869 122° Southeast 384 442 24,100 968 Climbing Minneapolis Center
Mon 06:17:21 PM 44.2083 -91.6567 122° Southeast 393 452 25,100 1,024 Climbing Minneapolis Center
Mon 06:18:22 PM 44.1483 -91.5250 122° Southeast 399 459 26,200 1,067 Climbing Minneapolis Center
Mon 06:19:36 PM 44.0769 -91.3642 122° Southeast 406 467 27,500 1,191 Climbing Minneapolis Center
Mon 06:20:38 PM 44.0047 -91.2028 122° Southeast 408 470 28,900 1,161 Climbing Minneapolis Center
Mon 06:21:40 PM 43.9442 -91.0689 122° Southeast 410 472 29,900 978 Climbing Minneapolis Center
Mon 06:22:53 PM 43.8833 -90.9369 123° Southeast 410 472 31,100 981 Climbing Minneapolis Center
Mon 06:23:24 PM 43.8461 -90.8594 124° Southeast 407 468 31,600 1,032 Climbing Chicago Center
Mon 06:24:26 PM 43.7764 -90.7042 122° Southeast 399 459 32,700 677 Climbing Chicago Center
Mon 06:25:28 PM 43.7125 -90.5678 123° Southeast 406 467 33,000 194 Climbing Chicago Center
Mon 06:25:59 PM 43.6908 -90.5186 121° Southeast 408 470 33,000  Level Minneapolis Center
Mon 06:27:01 PM 43.6139 -90.3517 122° Southeast 425 489 33,000  Level Minneapolis Center
Mon 06:27:32 PM 43.5828 -90.2897 125° Southeast 434 499 33,000  Level Chicago Center
Mon 06:28:34 PM 43.5186 -90.1494 122° Southeast 433 498 33,000  Level Chicago Center
Mon 06:29:36 PM 43.4406 -89.9853 123° Southeast 440 506 33,000  Level Chicago Center
Mon 06:30:38 PM 43.3742 -89.8458 123° Southeast 437 503 33,000 -432 Level Chicago Center
Mon 06:31:41 PM 43.3069 -89.7047 123° Southeast 440 506 32,100 -480 Descending Chicago Center
Mon 06:32:43 PM 43.2378 -89.5614 123° Southeast 450 518 32,000 -48 Descending Chicago Center
Mon 06:33:45 PM 43.1700 -89.4200 123° Southeast 447 514 32,000  Level Chicago Center
Mon 06:34:47 PM 43.0894 -89.2533 123° Southeast 450 518 32,000  Level Chicago Center
Mon 06:35:49 PM 43.0211 -89.1122 123° Southeast 448 516 32,000 97 Level Chicago Center
Mon 06:36:51 PM 42.9511 -88.9692 124° Southeast 453 521 32,200 339 Climbing Chicago Center
Mon 06:37:53 PM 42.8808 -88.8278 124° Southeast 455 524 32,700 387 Climbing Chicago Center
Mon 06:38:55 PM 42.8017 -88.6647 123° Southeast 447 514 33,000 145 Climbing Chicago Center
Mon 06:39:57 PM 42.7333 -88.5278 124° Southeast 441 507 33,000 -48 Level Chicago Center
Mon 06:40:59 PM 42.6653 -88.3897 124° Southeast 441 507 32,900 -581 Descending Chicago Center
Mon 06:42:01 PM 42.5961 -88.2517 124° Southeast 442 509 31,800 -912 Descending Chicago Center
Mon 06:43:04 PM 42.5236 -88.1075 124° Southeast 458 527 31,000 -384 Descending Chicago Center
Mon 06:44:06 PM 42.4400 -87.9414 124° Southeast 460 529 31,000  Level Chicago Center
Mon 06:45:08 PM 42.3669 -87.7986 125° Southeast 460 529 31,000  Level Chicago Center
Mon 06:46:10 PM 42.2872 -87.6436 125° Southeast 466 536 31,000  Level Chicago Center
Mon 06:47:12 PM 42.2139 -87.5011 125° Southeast 465 535 31,000  Level Chicago Center
Mon 06:48:14 PM 42.1406 -87.3569 124° Southeast 466 536 31,000  Level Chicago Center
Mon 06:50:18 PM 41.9917 -87.0714 125° Southeast 469 540 31,000  Level Chicago Center
Mon 06:51:20 PM 41.9175 -86.9297 125° Southeast 466 536 31,000  Level Chicago Center
Mon 06:52:22 PM 41.8272 -86.7600 125° Southeast 466 536 31,000  Level Chicago Center
Mon 06:53:24 PM 41.7572 -86.6269 125° Southeast 464 534 31,000  Level Chicago Center
Mon 06:54:27 PM 41.6825 -86.4856 125° Southeast 467 537 31,000  Level Chicago Center
Mon 06:55:29 PM 41.6072 -86.3444 125° Southeast 470 541 31,000  Level Chicago Center
Mon 06:56:31 PM 41.5317 -86.2044 126° Southeast 468 539 31,000  Level Chicago Center
Mon 06:57:33 PM 41.4397 -86.0333 126° Southeast 477 549 31,000  Level Chicago Center
Mon 06:58:35 PM 41.3642 -85.8919 125° Southeast 475 547 31,000  Level Chicago Center
Mon 06:59:37 PM 41.2867 -85.7514 126° Southeast 478 550 31,000  Level Chicago Center
Mon 07:00:40 PM 41.2094 -85.6072 125° Southeast 485 558 31,000  Level Chicago Center
Mon 07:01:42 PM 41.1158 -85.4386 126° Southeast 480 552 31,000  Level Chicago Center
Mon 07:02:44 PM 41.0383 -85.2944 125° Southeast 484 557 31,000  Level Chicago Center
Mon 07:03:46 PM 40.9661 -85.1447 123° Southeast 486 559 31,000  Level Chicago Center
Mon 07:04:48 PM 40.9153 -84.9792 112° Southeast 489 563 31,000  Level Chicago Center
Mon 07:05:51 PM 40.8647 -84.8153 112° Southeast 487 560 31,000  Level Chicago Center
Mon 07:06:53 PM 40.8033 -84.6178 112° Southeast 487 560 31,000  Level Chicago Center
Mon 07:07:23 PM 40.7839 -84.5503 111° Southeast 491 565 31,000  Level Indianapolis Center
Mon 07:08:25 PM 40.7311 -84.3814 112° Southeast 492 566 31,000  Level Indianapolis Center
Mon 07:09:26 PM 40.6689 -84.1842 113° Southeast 495 570 31,000  Level Indianapolis Center
Mon 07:10:28 PM 40.6156 -84.0142 112° Southeast 497 572 31,000  Level Indianapolis Center
Mon 07:11:30 PM 40.5614 -83.8456 113° Southeast 496 571 31,000  Level Indianapolis Center
Mon 07:12:31 PM 40.5083 -83.6792 113° Southeast 491 565 31,000  Level Indianapolis Center
Mon 07:13:33 PM 40.4542 -83.5114 113° Southeast 491 565 31,000  Level Indianapolis Center
Mon 07:14:34 PM 40.4000 -83.3447 113° Southeast 490 564 31,000  Level Indianapolis Center
Mon 07:15:36 PM 40.3467 -83.1800 113° Southeast 484 557 31,000  Level Indianapolis Center
Mon 07:16:38 PM 40.2928 -83.0153 113° Southeast 484 557 31,000  Level Indianapolis Center
Mon 07:17:39 PM 40.2381 -82.8511 114° Southeast 485 558 31,000  Level Indianapolis Center
Mon 07:18:41 PM 40.1839 -82.6889 114° Southeast 482 555 31,000  Level Indianapolis Center
Mon 07:19:43 PM 40.1306 -82.5250 113° Southeast 485 558 31,000  Level Indianapolis Center
Mon 07:20:44 PM 40.0833 -82.3581 110° East 486 559 31,000  Level Indianapolis Center
Mon 07:21:46 PM 40.0328 -82.1906 111° Southeast 492 566 31,000  Level Indianapolis Center
Mon 07:22:47 PM 39.9842 -82.0275 111° Southeast 480 552 31,000  Level Indianapolis Center
Mon 07:23:49 PM 39.9258 -81.8342 111° Southeast 485 558 31,000  Level Indianapolis Center
Mon 07:24:51 PM 39.8758 -81.6717 112° Southeast 481 554 31,000  Level Indianapolis Center
Mon 07:25:52 PM 39.8269 -81.5069 111° Southeast 482 555 31,000  Level Indianapolis Center
Mon 07:26:54 PM 39.7753 -81.3417 112° Southeast 483 556 31,000  Level Indianapolis Center
Mon 07:27:56 PM 39.7261 -81.1808 112° Southeast 480 552 31,000  Level Indianapolis Center
Mon 07:28:57 PM 39.6756 -81.0206 112° Southeast 478 550 31,000  Level Indianapolis Center
Mon 07:29:59 PM 39.6250 -80.8594 112° Southeast 479 551 31,000  Level Indianapolis Center
Mon 07:31:00 PM 39.5753 -80.6994 112° Southeast 477 549 31,000  Level Indianapolis Center
Mon 07:32:02 PM 39.5247 -80.5417 113° Southeast 475 547 31,000  Level Indianapolis Center
Mon 07:33:03 PM 39.4736 -80.3819 112° Southeast 477 549 31,000 -98 Level Indianapolis Center
Mon 07:34:05 PM 39.4236 -80.2242 112° Southeast 474 545 30,800 -779 Descending Indianapolis Center
Mon 07:34:20 PM 39.4042 -80.1578 111° Southeast 471 542 30,000 -2,640 Descending Washington Center
Mon 07:35:20 PM 39.3558 -80.0017 112° Southeast 471 542 27,500 -2,380 Descending Washington Center
Mon 07:36:21 PM 39.3069 -79.8539 113° Southeast 460 529 25,200 -1,240 Descending Washington Center
Mon 07:37:21 PM 39.2872 -79.7000 99° East 447 514 25,000 -99 Descending Washington Center
Mon 07:38:22 PM 39.2761 -79.5383 95° East 447 514 25,000  Level Washington Center
Mon 07:39:22 PM 39.2625 -79.3767 96° East 447 514 25,000  Level Washington Center
Mon 07:40:20 PM 39.2464 -79.2178 97° East 447 514 25,000  Level Washington Center
Mon 07:41:21 PM 39.2342 -79.0697 96° East 435 501 25,000  Level Washington Center
Mon 07:42:21 PM 39.2217 -78.9219 96° East 425 489 25,000 -942 Level Washington Center
Mon 07:43:22 PM 39.2047 -78.7764 98° East 420 483 23,100 -2,017 Descending Washington Center
Mon 07:44:20 PM 39.1917 -78.6367 97° East 403 464 21,000 -2,650 Descending Washington Center
Mon 07:45:22 PM 39.1783 -78.4994 97° East 391 450 17,800 -1,950 Descending Washington Center
Mon 07:46:20 PM 39.1628 -78.3703 99° East 380 437 17,100 -915 Descending Washington Center
Mon 07:47:20 PM 39.1342 -78.2461 107° East 369 425 16,000 -992 Descending Washington Center
Mon 07:48:21 PM 39.1036 -78.1219 108° East 364 419 15,100 -893 Descending Washington Center
Mon 07:49:21 PM 39.0764 -78.0194 109° East 358 412 14,200 -1,298 Descending Washington Center
Mon 07:51:12 PM 39.0167 -77.7833 108° East 332 382 11,400 -1,123 Descending Potomac TRACON
Mon 07:52:12 PM 38.9833 -77.6667 110° East 322 371 11,000 -750 Descending Potomac TRACON
Mon 07:53:12 PM 38.9667 -77.5667 102° East 304 350 9,900 -1,350 Descending Potomac TRACON
Mon 07:54:12 PM 38.9667 -77.4667 90° East 294 338 8,300 -1,550 Descending Potomac TRACON
Mon 07:55:12 PM 38.9833 -77.3667 78° East 280 322 6,800 -1,200 Descending Potomac TRACON
Mon 07:56:12 PM 38.9833 -77.2833 90° East 234 269 5,900 -1,091 Descending Potomac TRACON
Mon 07:57:13 PM 38.9667 -77.2167 108° East 196 226 4,600 -1,488 Descending Potomac TRACON
Mon 07:58:13 PM 38.9500 -77.1500 108° East 195 224 2,900 -1,700 Descending Potomac TRACON

Login

Don't have an account? Register now (free) for customized features, flight alerts, and more!